»·PEaware :: AMX619 KLAX-KLAS

AMX619 :: KLAX-KLAS

FLIGHT INFORMATION

Flight Status: Arrived
Operator:
Aeromexico
More flights by this operator :: More flights under this callsign
Pilot: Guillermo C. (14369)
Aircraft: Unknown
(738)
More flights by this aircraft type
Origin: KLAX Los Angeles Intl
United States
Destination: KLAS McCarran Intl
United States
More flights between these airports :: More routes between these airports
Route: LOOP9 DAG MISEN KEPEC4
File this flight plan on PilotEdge
Remarks:
Altitude:
(Current/Filed)
37,000ft
Speed:
(Current/Filed)
445kts
Departed: 23-Apr-17 04:58 PM
Arrived: 23-Apr-17 05:48 PM
Distance/Time
Traveled:
205nm/0:50
Distance/Time
To Go:
Arrived

Flight Plot

Page will automatically refresh every two minutes.

Flight plan parsing failed; only flown route is shown


Map Options




Map Legend


Flown Route
Filed Route
Departure Airport
Arrival Airport
Navaid (VOR, NDB)
Fix

Horizontal Profiles

Position Reports

Time Latitude Longitude Heading Altitude Ground
Speed
23-Apr-17 16:36 33.940711 -118.400047 80 117ft 0kts
23-Apr-17 16:38 33.940711 -118.400047 80 117ft 0kts
23-Apr-17 16:38 33.940711 -118.400047 80 117ft 0kts
23-Apr-17 16:40 33.940711 -118.400047 80 117ft 0kts
23-Apr-17 16:40 33.940711 -118.400047 80 117ft 0kts
23-Apr-17 16:41 33.940711 -118.400047 80 117ft 0kts
23-Apr-17 16:42 33.940711 -118.400047 80 117ft 0kts
23-Apr-17 16:43 33.940711 -118.400047 80 117ft 0kts
23-Apr-17 16:44 33.940711 -118.400047 80 117ft 0kts
23-Apr-17 16:45 33.940711 -118.400047 80 117ft 0kts
23-Apr-17 16:46 33.940711 -118.400047 80 117ft 0kts
23-Apr-17 16:47 33.940711 -118.400047 80 117ft 0kts
23-Apr-17 16:48 33.940711 -118.400047 80 117ft 0kts
23-Apr-17 16:49 33.940657 -118.400708 112 118ft 3kts
23-Apr-17 16:50 33.940933 -118.400948 169 119ft 0kts
23-Apr-17 16:51 33.940933 -118.400948 169 119ft 0kts
23-Apr-17 16:52 33.940933 -118.400948 169 119ft 0kts
23-Apr-17 16:53 33.940933 -118.400948 169 119ft 0kts
23-Apr-17 16:54 33.940162 -118.400737 165 118ft 13kts
23-Apr-17 16:55 33.939376 -118.393998 81 108ft 27kts
23-Apr-17 16:56 33.939924 -118.388459 91 104ft 0kts
23-Apr-17 16:57 33.939924 -118.388459 91 104ft 0kts
23-Apr-17 16:58 33.938934 -118.389086 264 104ft 13kts
23-Apr-17 16:59 33.936653 -118.422798 269 1257ft 165kts
23-Apr-17 17:00 33.921403 -118.486920 249 2869ft 240kts
23-Apr-17 17:01 33.893909 -118.563998 227 5356ft 259kts
23-Apr-17 17:02 33.835086 -118.537509 101 7871ft 304kts
23-Apr-17 17:03 33.881319 -118.465867 25 10372ft 308kts
23-Apr-17 17:05 33.947652 -118.401218 50 12816ft 345kts
23-Apr-17 17:06 33.999739 -118.313134 52 12981ft 347kts
23-Apr-17 17:07 34.052033 -118.221583 53 15174ft 358kts
23-Apr-17 17:08 34.105831 -118.126756 52 17473ft 372kts
23-Apr-17 17:09 34.156903 -118.036451 52 19501ft 383kts
23-Apr-17 17:10 34.216657 -117.930035 52 21647ft 394kts
23-Apr-17 17:11 34.278542 -117.819808 52 23620ft 405kts
23-Apr-17 17:12 34.340975 -117.708229 52 25384ft 416kts
23-Apr-17 17:13 34.405090 -117.593060 51 27443ft 413kts
23-Apr-17 17:14 34.467725 -117.480636 51 29223ft 409kts
23-Apr-17 17:15 34.529425 -117.369741 51 30774ft 406kts
23-Apr-17 17:16 34.587680 -117.264552 51 31974ft 404kts
23-Apr-17 17:17 34.649514 -117.152413 51 33093ft 401kts
23-Apr-17 17:18 34.711569 -117.039627 51 33640ft 413kts
23-Apr-17 17:19 34.776135 -116.921956 53 33890ft 432kts
23-Apr-17 17:20 34.842930 -116.799432 54 34610ft 437kts
23-Apr-17 17:21 34.909103 -116.677938 54 35466ft 436kts
23-Apr-17 17:22 34.974673 -116.556561 54 36271ft 432kts
23-Apr-17 17:23 35.039805 -116.436036 53 36848ft 432kts
23-Apr-17 17:24 35.103108 -116.318556 53 36848ft 444kts
23-Apr-17 17:25 35.169688 -116.194495 54 36853ft 455kts
23-Apr-17 17:26 35.239049 -116.064725 53 36852ft 467kts
23-Apr-17 17:27 35.328223 -115.964839 359 36751ft 435kts
23-Apr-17 17:28 35.438259 -115.980685 12 36839ft 450kts
23-Apr-17 17:29 35.537245 -115.868275 44 34923ft 532kts
23-Apr-17 17:30 35.631117 -115.740097 43 32503ft 510kts
23-Apr-17 17:31 35.724200 -115.618762 34 30041ft 489kts
23-Apr-17 17:32 35.842968 -115.573590 358 27600ft 439kts
23-Apr-17 17:33 35.952630 -115.540565 36 25191ft 417kts
23-Apr-17 17:34 36.010809 -115.465196 59 23343ft 405kts
23-Apr-17 17:35 36.027457 -115.356925 95 21497ft 402kts
23-Apr-17 17:36 36.020274 -115.234096 98 19106ft 402kts
23-Apr-17 17:37 36.011545 -115.102709 99 16549ft 399kts
23-Apr-17 17:38 36.003720 -114.974675 98 13666ft 382kts
23-Apr-17 17:39 35.996379 -114.854330 98 11454ft 336kts
23-Apr-17 17:40 35.989628 -114.750158 99 9691ft 277kts
23-Apr-17 17:41 36.024895 -114.692902 333 8072ft 226kts
23-Apr-17 17:42 36.067412 -114.738714 276 7965ft 211kts
23-Apr-17 17:43 36.073454 -114.807175 267 6941ft 202kts
23-Apr-17 17:44 36.073866 -114.871832 266 6077ft 190kts
23-Apr-17 17:45 36.073871 -114.932946 265 5112ft 177kts
23-Apr-17 17:46 36.073986 -114.989019 266 4224ft 174kts
23-Apr-17 17:47 36.074354 -115.035795 262 3503ft 152kts
23-Apr-17 17:48 36.074319 -115.085260 263 2733ft 149kts
23-Apr-17 17:49 36.073697 -115.129406 265 2057ft 141kts
23-Apr-17 17:50 36.074505 -115.145453 296 2103ft 15kts
23-Apr-17 17:51 36.074790 -115.146087 308 2104ft 0kts

Navigation Log

Ident Type
Flight plan parsing failed, navigation log unavailable